createdAt,value
2018-06-23T00:00:37.502Z,36.73
2018-06-23T00:05:39.692Z,28.97
2018-06-23T00:10:41.916Z,25.23
2018-06-23T00:15:44.215Z,28.73
2018-06-23T00:20:46.362Z,28.60
2018-06-23T00:25:54.248Z,33.73
2018-06-23T00:30:56.506Z,27.47
2018-06-23T00:35:58.652Z,17.67
2018-06-23T00:41:00.784Z,32.60
2018-06-23T00:46:02.989Z,23.60
2018-06-23T00:51:05.277Z,21.57
2018-06-23T00:56:07.434Z,15.60
2018-06-23T01:01:09.681Z,19.57
2018-06-23T01:06:11.840Z,23.30
2018-06-23T01:11:13.975Z,11.77
2018-06-23T01:16:16.110Z,17.23
2018-06-23T01:21:18.256Z,18.50
2018-06-23T01:26:20.386Z,14.97
2018-06-23T01:31:22.590Z,17.93
2018-06-23T01:36:24.719Z,18.13
2018-06-23T01:41:26.995Z,20.50
2018-06-23T01:46:29.134Z,18.60
2018-06-23T01:51:31.236Z,12.63
2018-06-23T01:56:33.364Z,15.20
2018-06-23T02:01:35.507Z,19.70
2018-06-23T02:06:37.669Z,15.30
2018-06-23T02:11:39.852Z,10.57
2018-06-23T02:16:47.591Z,6.80
2018-06-23T02:21:55.441Z,12.70
2018-06-23T02:27:03.447Z,15.00
2018-06-23T02:32:11.643Z,11.00
2018-06-23T02:37:13.824Z,10.10
2018-06-23T02:42:15.949Z,11.30
2018-06-23T02:47:18.104Z,8.00
2018-06-23T02:52:20.263Z,13.83
2018-06-23T02:57:22.620Z,13.70
2018-06-23T03:02:25.022Z,16.60
2018-06-23T03:07:27.176Z,9.93
2018-06-23T03:12:29.339Z,13.23
2018-06-23T03:17:31.484Z,9.87
2018-06-23T03:22:33.597Z,13.80
2018-06-23T03:27:35.706Z,14.63
2018-06-23T03:32:37.860Z,21.20
2018-06-23T03:37:39.993Z,10.10
2018-06-23T03:42:42.113Z,14.53
2018-06-23T03:47:44.256Z,10.77
2018-06-23T03:52:46.391Z,11.10
2018-06-23T03:57:48.527Z,7.13
2018-06-23T04:02:50.688Z,10.60
2018-06-23T04:07:52.897Z,8.93
2018-06-23T04:12:55.059Z,5.53
2018-06-23T04:17:57.206Z,11.17
2018-06-23T04:22:59.310Z,6.03
2018-06-23T04:28:01.445Z,10.93
2018-06-23T04:33:03.597Z,8.63
2018-06-23T04:38:05.811Z,12.57
2018-06-23T04:43:07.996Z,6.37
2018-06-23T04:48:10.144Z,3.93
2018-06-23T04:53:12.328Z,5.63
2018-06-23T04:58:14.431Z,7.10
2018-06-23T05:03:16.531Z,8.40
2018-06-23T05:08:18.625Z,5.07
2018-06-23T05:13:20.743Z,10.40
2018-06-23T05:18:22.966Z,13.57
2018-06-23T05:23:25.092Z,8.00
2018-06-23T05:28:27.248Z,6.30
2018-06-23T05:33:29.442Z,4.17
2018-06-23T05:38:31.630Z,5.40
2018-06-23T05:43:33.811Z,3.23
2018-06-23T05:48:35.985Z,7.73
2018-06-23T05:53:38.193Z,7.47
2018-06-23T05:58:40.359Z,13.00
2018-06-23T06:03:42.511Z,4.87
2018-06-23T06:13:53.484Z,18.90
2018-06-23T06:18:55.647Z,10.03
2018-06-23T06:23:57.814Z,9.07
2018-06-23T06:29:00.782Z,9.27
2018-06-23T06:34:02.970Z,13.10
2018-06-23T06:39:05.863Z,5.50
2018-06-23T06:44:08.007Z,8.93
2018-06-23T06:49:10.166Z,24.90
2018-06-23T06:54:12.377Z,8.40
2018-06-23T06:59:14.521Z,10.33
2018-06-23T07:04:17.667Z,11.07
2018-06-23T07:09:19.848Z,14.70
2018-06-23T07:14:22.033Z,13.93
2018-06-23T07:19:24.198Z,15.53
2018-06-23T07:24:26.732Z,9.07
2018-06-23T07:29:28.923Z,12.27
2018-06-23T07:34:31.195Z,11.80
2018-06-23T07:39:33.301Z,10.80
2018-06-23T07:44:35.493Z,17.90
2018-06-23T07:49:37.651Z,8.20
2018-06-23T07:54:39.835Z,7.50
2018-06-23T07:59:42.142Z,18.13
2018-06-23T08:04:44.333Z,18.10
2018-06-23T08:09:46.881Z,7.23
2018-06-23T08:14:49.012Z,13.03
2018-06-23T08:19:51.161Z,18.07
2018-06-23T08:24:53.580Z,18.80
2018-06-23T08:29:55.728Z,8.93
2018-06-23T08:34:57.930Z,13.83
2018-06-23T08:40:00.217Z,13.50
2018-06-23T08:45:02.393Z,8.47
2018-06-23T08:50:04.620Z,9.63
2018-06-23T08:55:06.839Z,9.60
2018-06-23T09:00:08.996Z,12.57
2018-06-23T09:05:11.215Z,15.43
2018-06-23T09:10:13.436Z,10.60
2018-06-23T09:15:15.653Z,16.43
2018-06-23T09:20:17.834Z,14.83
2018-06-23T09:25:20.088Z,14.17
2018-06-23T09:30:22.268Z,21.57
2018-06-23T09:35:24.464Z,15.43
2018-06-23T09:40:26.632Z,17.73
2018-06-23T09:45:28.799Z,17.77
2018-06-23T09:50:30.998Z,11.07
2018-06-23T09:55:33.179Z,11.10
2018-06-23T10:00:35.378Z,23.73
2018-06-23T10:05:37.568Z,24.07
2018-06-23T10:10:39.752Z,12.83
2018-06-23T10:15:42.041Z,18.87
2018-06-23T10:20:44.226Z,12.73
2018-06-23T10:25:46.403Z,11.10
2018-06-23T10:30:48.879Z,12.47
2018-06-23T10:35:51.168Z,10.00
2018-06-23T10:40:53.370Z,5.37
2018-06-23T10:45:55.635Z,7.27
2018-06-23T10:50:57.840Z,3.40
2018-06-23T10:56:00.143Z,8.20
2018-06-23T11:01:02.458Z,10.40
2018-06-23T11:06:04.643Z,9.10
2018-06-23T11:11:06.905Z,6.97
2018-06-23T11:16:09.096Z,8.90
2018-06-23T11:21:11.647Z,3.63
2018-06-23T11:26:13.870Z,8.83
2018-06-23T11:31:16.034Z,14.47
2018-06-23T11:36:18.250Z,6.80
2018-06-23T11:41:20.485Z,6.83
2018-06-23T11:46:22.673Z,7.23
2018-06-23T11:51:24.871Z,9.77
2018-06-23T11:56:27.035Z,9.53
2018-06-23T12:01:29.184Z,7.47
2018-06-23T12:06:31.374Z,10.83
2018-06-23T12:11:33.571Z,9.47
2018-06-23T12:16:35.763Z,9.83
2018-06-23T12:21:38.428Z,5.77
2018-06-23T12:26:40.601Z,8.20
2018-06-23T12:31:42.799Z,4.80
2018-06-23T12:36:45.006Z,7.97
2018-06-23T12:41:47.210Z,11.63
2018-06-23T12:46:49.388Z,10.00
2018-06-23T12:51:51.534Z,5.80
2018-06-23T12:56:53.783Z,8.23
2018-06-23T13:01:55.966Z,3.83
2018-06-23T13:06:58.124Z,1.30
2018-06-23T13:12:00.288Z,2.63
2018-06-23T13:17:02.535Z,1.00
2018-06-23T13:22:04.933Z,2.60
2018-06-23T13:27:07.122Z,1.57
2018-06-23T13:32:09.328Z,1.30
2018-06-23T13:37:11.660Z,4.97
2018-06-23T13:42:13.901Z,1.17
2018-06-23T13:47:16.144Z,3.47
2018-06-23T13:52:18.357Z,1.53
2018-06-23T13:57:20.652Z,1.50
2018-06-23T14:02:22.928Z,2.87
2018-06-23T14:07:25.141Z,5.73
2018-06-23T14:12:27.421Z,3.87
2018-06-23T14:17:29.562Z,4.30
2018-06-23T14:22:31.779Z,5.33
2018-06-23T14:27:34.002Z,6.33
2018-06-23T14:32:36.160Z,7.60
2018-06-23T14:37:38.400Z,7.70
2018-06-23T14:42:40.593Z,9.20
2018-06-23T14:47:42.766Z,7.83
2018-06-23T14:52:44.974Z,9.63
2018-06-23T14:57:47.212Z,9.03
2018-06-23T15:02:49.414Z,10.03
2018-06-23T15:07:51.617Z,7.77
2018-06-23T15:13:05.579Z,7.83
2018-06-23T15:18:07.771Z,13.77
2018-06-23T15:23:09.998Z,8.27
2018-06-23T15:28:12.165Z,8.27
2018-06-23T15:33:14.347Z,9.37
2018-06-23T15:38:16.595Z,7.40
2018-06-23T15:43:18.751Z,7.47
2018-06-23T15:48:20.916Z,9.10
2018-06-23T15:53:23.168Z,9.30
2018-06-23T15:58:25.330Z,10.90
2018-06-23T16:03:27.733Z,18.50
2018-06-23T16:08:29.970Z,10.67
2018-06-23T16:13:32.188Z,10.40
2018-06-23T16:18:34.381Z,7.73
2018-06-23T16:23:36.578Z,7.67
2018-06-23T16:28:38.740Z,6.23
2018-06-23T16:33:40.964Z,7.87
2018-06-23T16:38:43.172Z,8.90
2018-06-23T16:43:45.377Z,7.13
2018-06-23T16:48:47.592Z,8.33
2018-06-23T16:53:49.759Z,11.73
2018-06-23T16:58:51.933Z,14.50
2018-06-23T17:03:54.244Z,11.27
2018-06-23T17:08:56.356Z,12.63
2018-06-23T17:13:58.565Z,11.77
2018-06-23T17:19:00.768Z,12.47
2018-06-23T17:24:02.939Z,16.27
2018-06-23T17:29:05.155Z,8.93
2018-06-23T17:34:07.380Z,13.20
2018-06-23T17:39:10.321Z,11.47
2018-06-23T17:44:12.551Z,15.43
2018-06-23T17:49:14.769Z,14.93
2018-06-23T17:54:16.959Z,14.47
2018-06-23T17:59:19.183Z,14.13
2018-06-23T18:04:21.399Z,15.90
2018-06-23T18:09:23.588Z,14.40
2018-06-23T18:14:25.789Z,16.23
2018-06-23T18:19:27.995Z,18.93
2018-06-23T18:24:30.201Z,16.30
2018-06-23T18:29:32.374Z,12.37
2018-06-23T18:34:34.561Z,16.07
2018-06-23T18:39:36.788Z,15.83
2018-06-23T18:44:38.964Z,15.43
2018-06-23T18:49:41.152Z,16.40
2018-06-23T18:54:43.346Z,20.90
2018-06-23T18:59:45.514Z,22.50
2018-06-23T19:04:47.692Z,16.53
2018-06-23T19:09:49.913Z,16.20
2018-06-23T19:14:52.088Z,15.23
2018-06-23T19:19:54.350Z,17.13
2018-06-23T19:24:56.547Z,22.63
2018-06-23T19:29:58.789Z,22.03
2018-06-23T19:35:00.968Z,21.10
2018-06-23T19:40:03.466Z,18.07
2018-06-23T19:45:05.642Z,20.97
2018-06-23T19:50:07.845Z,17.40
2018-06-23T19:55:10.059Z,18.30
2018-06-23T20:00:12.232Z,30.20
2018-06-23T20:05:14.420Z,62.70
2018-06-23T20:10:16.612Z,59.93
2018-06-23T20:15:18.818Z,49.73
2018-06-23T20:20:21.053Z,16.80
2018-06-23T20:25:23.247Z,27.30
2018-06-23T20:30:25.411Z,28.83
2018-06-23T20:35:27.611Z,22.70
2018-06-23T20:40:29.838Z,23.67
2018-06-23T20:45:32.316Z,17.73
2018-06-23T20:50:34.523Z,27.13
2018-06-23T20:55:36.753Z,12.73
2018-06-23T21:00:38.938Z,26.70
2018-06-23T21:05:41.084Z,19.50
2018-06-23T21:10:44.551Z,24.77
2018-06-23T21:15:46.695Z,16.70
2018-06-23T21:20:48.908Z,16.33
2018-06-23T21:25:51.095Z,19.90
2018-06-23T21:30:53.368Z,17.70
2018-06-23T21:35:55.481Z,19.10
2018-06-23T21:40:57.713Z,18.77
2018-06-23T21:45:59.881Z,11.70
2018-06-23T21:51:02.097Z,15.43
2018-06-23T21:56:04.319Z,14.67
2018-06-23T22:01:06.652Z,17.37
2018-06-23T22:06:08.885Z,8.53
2018-06-23T22:11:11.057Z,8.30
2018-06-23T22:16:13.273Z,16.70
2018-06-23T22:21:15.469Z,17.37
2018-06-23T22:26:17.659Z,17.43
2018-06-23T22:31:19.818Z,18.03
2018-06-23T22:36:21.992Z,9.70
2018-06-23T22:41:24.184Z,15.00
2018-06-23T22:46:26.367Z,19.33
2018-06-23T22:51:29.086Z,15.43
2018-06-23T22:56:31.498Z,15.27
2018-06-23T23:01:33.960Z,10.90
2018-06-23T23:06:36.160Z,14.53
2018-06-23T23:11:38.364Z,10.70
2018-06-23T23:16:40.527Z,17.53
2018-06-23T23:21:42.720Z,14.23
2018-06-23T23:26:44.923Z,18.97
2018-06-23T23:31:47.098Z,11.13
2018-06-23T23:36:49.288Z,11.23
2018-06-23T23:41:51.490Z,11.17
2018-06-23T23:46:53.665Z,16.67
2018-06-23T23:51:55.796Z,14.93
2018-06-23T23:56:58.093Z,19.80
